Time;durP1;ratioP1;P1;durP2;ratioP2;P2;SDS_P1;SDS_P2;PMS_P1;PMS_P2;Temp;Humidity;BMP_temperature;BMP_pressure;BME280_temperature;BME280_humidity;BME280_pressure;Samples;Min_cycle;Max_cycle;Signal;HPM_P1;HPM_P2
2022/03/11 00:01:07;;;;;;;;;32.00;28.25;;;;;14.90;63.54;100979.63;5076200;27;45398;-78
2022/03/11 00:03:33;;;;;;;;;33.50;28.50;;;;;14.98;63.37;100987.69;5079937;28;45241;-78
2022/03/11 00:05:59;;;;;;;;;26.75;25.75;;;;;14.96;62.93;100974.59;5078683;28;45426;-80
2022/03/11 00:08:24;;;;;;;;;30.75;26.50;;;;;14.89;63.43;100974.38;5069606;27;46087;-78
2022/03/11 00:10:50;;;;;;;;;32.25;29.50;;;;;14.94;63.77;100970.19;5064195;28;45238;-79
2022/03/11 00:13:16;;;;;;;;;34.00;29.75;;;;;14.93;63.34;100961.47;5055836;28;45266;-79
2022/03/11 00:15:42;;;;;;;;;37.00;31.00;;;;;14.92;63.04;100964.91;5056448;28;45201;-79
2022/03/11 00:18:07;;;;;;;;;27.50;23.75;;;;;14.90;63.42;100966.59;5055182;28;46330;-79
2022/03/11 00:20:34;;;;;;;;;33.25;26.25;;;;;14.83;64.08;100959.44;5055824;28;45784;-78
2022/03/11 00:22:59;;;;;;;;;27.25;25.00;;;;;14.83;64.22;100962.03;5055357;28;45476;-79
2022/03/11 00:25:25;;;;;;;;;27.50;26.00;;;;;14.82;64.37;100949.84;5058364;28;45584;-79
2022/03/11 00:27:51;;;;;;;;;26.50;24.00;;;;;14.77;64.25;100944.50;5059368;28;45350;-79
2022/03/11 00:30:17;;;;;;;;;31.25;27.25;;;;;14.81;64.55;100943.75;5059286;28;46041;-78
2022/03/11 00:32:43;;;;;;;;;25.25;24.25;;;;;14.90;64.53;100952.69;5059549;28;45328;-78
2022/03/11 00:35:11;;;;;;;;;23.75;21.50;;;;;14.93;64.21;100947.56;5063304;28;45482;-78
2022/03/11 00:37:39;;;;;;;;;27.50;25.25;;;;;14.91;64.02;100944.03;5079402;27;45250;-78
2022/03/11 00:40:05;;;;;;;;;26.00;24.50;;;;;14.89;64.01;100937.88;5079199;28;45396;-78
2022/03/11 00:42:31;;;;;;;;;28.00;25.50;;;;;14.80;64.07;100934.16;5079968;27;45298;-77
2022/03/11 00:44:56;;;;;;;;;24.00;23.00;;;;;14.83;63.82;100942.09;5082023;27;45439;-77
2022/03/11 00:47:22;;;;;;;;;21.25;19.00;;;;;14.79;64.12;100932.41;5080506;27;45616;-77
2022/03/11 00:49:48;;;;;;;;;28.00;23.00;;;;;14.81;64.06;100932.44;5079834;27;45222;-77
2022/03/11 00:52:13;;;;;;;;;25.75;22.25;;;;;14.69;64.11;100922.53;5079210;28;45460;-78
2022/03/11 00:54:39;;;;;;;;;27.00;22.75;;;;;14.68;64.43;100932.09;5078226;28;45354;-77
2022/03/11 00:57:04;;;;;;;;;29.00;26.25;;;;;14.65;65.12;100915.44;5078954;28;45876;-78
2022/03/11 00:59:30;;;;;;;;;28.00;23.25;;;;;14.65;64.58;100915.44;5079532;28;45438;-78
2022/03/11 01:01:56;;;;;;;;;22.25;20.25;;;;;14.69;64.91;100917.34;5079375;28;45160;-77
2022/03/11 01:04:22;;;;;;;;;23.75;21.00;;;;;14.70;65.15;100909.53;5077997;28;45243;-78
2022/03/11 01:06:48;;;;;;;;;24.25;23.50;;;;;14.74;64.88;100910.50;5079106;28;46035;-77
2022/03/11 01:09:13;;;;;;;;;23.00;23.00;;;;;14.78;64.60;100909.78;5078906;28;45420;-77
2022/03/11 01:11:39;;;;;;;;;24.50;22.50;;;;;14.70;65.07;100898.25;5079053;28;45363;-77
2022/03/11 01:14:05;;;;;;;;;32.50;24.50;;;;;14.80;64.75;100910.72;5079200;28;45544;-79
2022/03/11 01:16:31;;;;;;;;;25.75;23.00;;;;;14.77;64.50;100899.31;5079218;28;46081;-76
2022/03/11 01:18:57;;;;;;;;;23.50;23.00;;;;;14.77;65.11;100896.72;5078458;28;45849;-76
2022/03/11 01:21:23;;;;;;;;;21.50;19.75;;;;;14.85;64.44;100890.84;5078908;27;45319;-77
2022/03/11 01:23:48;;;;;;;;;24.50;20.25;;;;;14.86;64.16;100886.53;5080273;27;45251;-76
2022/03/11 01:26:15;;;;;;;;;21.25;21.00;;;;;14.88;64.28;100892.69;5080802;27;45535;-78
2022/03/11 01:28:42;;;;;;;;;26.00;23.25;;;;;14.84;64.62;100886.50;5079603;28;46042;-77
2022/03/11 01:31:13;;;;;;;;;23.00;20.75;;;;;14.88;64.41;100878.75;5078831;28;45497;-76
2022/03/11 01:33:40;;;;;;;;;19.75;17.75;;;;;14.76;64.08;100869.75;5079409;28;45442;-77
2022/03/11 01:36:07;;;;;;;;;23.50;20.25;;;;;14.73;64.64;100872.28;5078296;28;45234;-77
2022/03/11 01:38:33;;;;;;;;;24.25;21.00;;;;;14.74;64.47;100883.59;5079057;28;45455;-79
2022/03/11 01:40:59;;;;;;;;;25.75;22.25;;;;;14.67;65.05;100864.28;5079003;28;45405;-77
2022/03/11 01:43:24;;;;;;;;;20.75;18.50;;;;;14.66;65.23;100886.81;5078714;28;45408;-79
2022/03/11 01:45:50;;;;;;;;;20.50;20.50;;;;;14.61;65.35;100869.28;5078076;28;46071;-79
2022/03/11 01:48:16;;;;;;;;;24.00;23.25;;;;;14.52;65.68;100854.25;5078297;27;45384;-79
2022/03/11 01:50:42;;;;;;;;;23.00;22.25;;;;;14.52;65.26;100867.28;5078622;27;45376;-77
2022/03/11 01:53:10;;;;;;;;;23.75;19.75;;;;;14.42;66.26;100858.31;5078562;27;45417;-79
2022/03/11 01:55:37;;;;;;;;;22.00;20.00;;;;;14.34;66.34;100858.09;5078538;27;46075;-78
2022/03/11 01:58:04;;;;;;;;;27.25;22.00;;;;;14.28;66.59;100844.00;5079063;27;46122;-78
2022/03/11 02:00:31;;;;;;;;;24.00;21.00;;;;;14.32;66.81;100848.44;5080790;27;45404;-77
2022/03/11 02:02:57;;;;;;;;;22.50;20.00;;;;;14.24;66.55;100843.03;5082972;27;45355;-78
2022/03/11 02:05:24;;;;;;;;;22.25;19.00;;;;;14.25;66.73;100847.41;5078462;28;47308;-78
2022/03/11 02:07:50;;;;;;;;;19.00;18.00;;;;;14.29;67.01;100844.03;5080067;28;45763;-78
2022/03/11 02:10:16;;;;;;;;;20.50;16.00;;;;;14.30;67.29;100842.34;5078276;27;45165;-78
2022/03/11 02:12:43;;;;;;;;;20.25;19.75;;;;;14.30;66.97;100840.59;5078718;27;45419;-77
2022/03/11 02:15:09;;;;;;;;;23.25;20.75;;;;;14.29;67.36;100848.38;5077586;28;46557;-77
2022/03/11 02:17:35;;;;;;;;;27.00;22.50;;;;;14.23;66.68;100836.94;5077721;27;45478;-78
2022/03/11 02:20:02;;;;;;;;;18.00;16.25;;;;;14.21;67.25;100845.53;5078423;28;45290;-78
2022/03/11 02:22:34;;;;;;;;;23.75;22.00;;;;;14.08;67.17;100842.56;5078167;28;45483;-78
2022/03/11 02:25:00;;;;;;;;;22.75;21.75;;;;;14.02;67.75;100846.69;5078245;27;45297;-78
2022/03/11 02:27:25;;;;;;;;;20.75;17.25;;;;;13.99;68.60;100859.59;5077732;28;45341;-78
2022/03/11 02:29:51;;;;;;;;;24.00;21.00;;;;;13.90;68.90;100844.59;5077996;27;45406;-78
2022/03/11 02:32:16;;;;;;;;;22.50;19.00;;;;;13.75;69.16;100845.00;5077551;27;45307;-78
2022/03/11 02:34:42;;;;;;;;;23.75;19.75;;;;;13.74;69.42;100827.59;5076293;27;45749;-77
2022/03/11 02:37:10;;;;;;;;;17.00;16.75;;;;;13.71;69.29;100831.00;5077668;27;45396;-78
2022/03/11 02:39:37;;;;;;;;;19.75;19.00;;;;;13.68;70.25;100819.59;5078053;27;45289;-78
2022/03/11 02:42:06;;;;;;;;;21.50;18.75;;;;;13.67;69.77;100807.41;5078493;27;45497;-78
2022/03/11 02:44:31;;;;;;;;;22.00;20.00;;;;;13.71;69.61;100823.19;5079418;27;46553;-78
2022/03/11 02:46:59;;;;;;;;;22.00;20.25;;;;;13.68;69.38;100816.97;5083750;27;45318;-78
2022/03/11 02:49:27;;;;;;;;;21.25;19.25;;;;;13.67;69.73;100816.13;5079660;28;45401;-78
2022/03/11 02:51:54;;;;;;;;;21.25;18.00;;;;;13.57;69.76;100803.66;5077969;28;45627;-79
2022/03/11 02:54:19;;;;;;;;;20.50;18.75;;;;;13.55;70.30;100815.72;5077170;28;45334;-78
2022/03/11 02:56:45;;;;;;;;;16.25;16.25;;;;;13.53;70.84;100807.88;5077514;28;45329;-78
2022/03/11 02:59:11;;;;;;;;;22.25;20.00;;;;;13.43;70.86;100808.41;5076951;28;45427;-78
2022/03/11 03:01:36;;;;;;;;;21.00;18.00;;;;;13.42;71.08;100806.63;5076321;28;45588;-77
2022/03/11 03:04:02;;;;;;;;;20.25;19.75;;;;;13.31;71.60;100806.22;5077516;27;45421;-78
2022/03/11 03:06:27;;;;;;;;;23.00;21.00;;;;;13.21;71.54;100802.47;5076814;27;45396;-78
2022/03/11 03:08:53;;;;;;;;;25.25;21.00;;;;;13.13;72.15;100802.19;5075870;28;45343;-78
2022/03/11 03:11:19;;;;;;;;;22.00;17.50;;;;;13.13;72.41;100798.69;5077243;28;45342;-78
2022/03/11 03:13:45;;;;;;;;;18.50;18.00;;;;;13.05;71.85;100780.25;5076799;28;46574;-78
2022/03/11 03:16:11;;;;;;;;;19.25;19.00;;;;;13.05;73.29;100782.84;5076980;27;45229;-77
2022/03/11 03:18:37;;;;;;;;;15.00;13.25;;;;;13.05;72.49;100784.56;5077280;27;45233;-77
2022/03/11 03:21:03;;;;;;;;;20.50;15.75;;;;;13.03;72.46;100783.59;5077757;27;45397;-77
2022/03/11 03:23:29;;;;;;;;;24.50;19.25;;;;;13.06;72.52;100773.31;5077385;27;45798;-77
2022/03/11 03:25:55;;;;;;;;;19.25;18.50;;;;;13.05;72.49;100766.34;5078043;27;45539;-77
2022/03/11 03:28:21;;;;;;;;;25.50;17.75;;;;;13.05;72.47;100762.06;5079151;27;45398;-78
2022/03/11 03:30:46;;;;;;;;;20.75;18.75;;;;;13.16;72.25;100767.59;5077778;27;45455;-77
2022/03/11 03:33:12;;;;;;;;;19.25;17.75;;;;;13.19;72.39;100759.91;5076624;27;45929;-79
2022/03/11 03:35:38;;;;;;;;;18.25;15.25;;;;;13.16;72.13;100759.81;5076889;27;45289;-79
2022/03/11 03:38:04;;;;;;;;;20.00;18.00;;;;;13.16;72.19;100768.50;5075384;27;45251;-79
2022/03/11 03:40:29;;;;;;;;;21.75;21.25;;;;;13.11;73.56;100764.84;5077430;27;45200;-78
2022/03/11 03:42:55;;;;;;;;;22.50;16.00;;;;;13.05;73.16;100761.16;5076746;27;45262;-79
2022/03/11 03:45:21;;;;;;;;;19.25;16.00;;;;;12.99;73.64;100754.03;5076004;27;45467;-79
2022/03/11 03:47:47;;;;;;;;;21.50;17.25;;;;;12.95;73.99;100766.03;5076946;28;45352;-79
2022/03/11 03:50:12;;;;;;;;;20.50;18.00;;;;;12.85;74.69;100759.63;5076702;28;45457;-79
2022/03/11 03:52:38;;;;;;;;;15.00;14.25;;;;;12.81;75.00;100756.88;5076416;28;45373;-79
2022/03/11 03:55:05;;;;;;;;;19.25;18.00;;;;;12.76;75.09;100751.53;5076407;28;45297;-77
2022/03/11 03:57:31;;;;;;;;;21.25;18.75;;;;;12.78;75.53;100747.28;5076802;27;45409;-77
2022/03/11 03:59:57;;;;;;;;;22.25;18.50;;;;;12.83;75.65;100752.63;5075338;28;45332;-79
2022/03/11 04:02:22;;;;;;;;;20.75;19.75;;;;;12.80;75.86;100756.00;5076256;27;45441;-79
2022/03/11 04:04:48;;;;;;;;;21.00;17.75;;;;;12.78;75.96;100752.47;5077373;28;45347;-78
2022/03/11 04:07:14;;;;;;;;;14.50;12.75;;;;;12.77;76.59;100749.84;5080771;27;45266;-78
2022/03/11 04:09:39;;;;;;;;;23.25;19.25;;;;;12.67;76.77;100746.91;5077888;28;45360;-77
2022/03/11 04:12:05;;;;;;;;;20.75;17.25;;;;;12.60;77.43;100757.03;5076103;27;45294;-77
2022/03/11 04:14:31;;;;;;;;;23.00;20.00;;;;;12.52;77.30;100749.88;5076253;27;45250;-78
2022/03/11 04:16:56;;;;;;;;;19.75;18.75;;;;;12.52;77.84;100741.16;5076338;28;45227;-77
2022/03/11 04:19:22;;;;;;;;;6.50;4.75;;;;;12.53;78.22;100736.03;5076292;28;45458;-76
2022/03/11 04:21:48;;;;;;;;;17.50;15.50;;;;;12.53;77.97;100728.22;5076093;27;46095;-76
2022/03/11 04:24:14;;;;;;;;;19.25;15.50;;;;;12.60;78.40;100742.31;5075728;28;45539;-79
2022/03/11 04:26:43;;;;;;;;;20.25;17.50;;;;;12.58;78.15;100732.72;5076434;28;45394;-79
2022/03/11 04:29:09;;;;;;;;;20.00;19.00;;;;;12.60;79.10;100755.31;5075132;28;45322;-77
2022/03/11 04:31:35;;;;;;;;;19.25;14.00;;;;;12.50;79.81;100743.72;5075941;28;46437;-77
2022/03/11 04:34:02;;;;;;;;;18.00;15.25;;;;;12.49;79.74;100754.03;5076154;28;45286;-78
2022/03/11 04:36:29;;;;;;;;;20.75;19.25;;;;;12.39;80.93;100732.94;5075944;28;45347;-77
2022/03/11 04:38:55;;;;;;;;;18.50;15.00;;;;;12.39;81.03;100750.25;5075003;28;45274;-76
2022/03/11 04:41:21;;;;;;;;;15.00;14.00;;;;;12.35;81.34;100743.16;5075243;28;45415;-77
2022/03/11 04:43:46;;;;;;;;;18.00;15.00;;;;;12.39;81.13;100737.25;5075946;28;45369;-76
2022/03/11 04:46:12;;;;;;;;;17.00;15.50;;;;;12.47;81.25;100734.94;5076868;27;45394;-77
2022/03/11 04:48:40;;;;;;;;;20.25;16.25;;;;;12.52;81.70;100744.66;5076929;28;45615;-76
2022/03/11 04:51:05;;;;;;;;;13.25;10.50;;;;;12.49;81.67;100746.25;5075772;28;45527;-77
2022/03/11 04:53:31;;;;;;;;;14.75;11.75;;;;;12.44;81.73;100740.88;5076197;28;45315;-78
2022/03/11 04:55:57;;;;;;;;;16.25;15.75;;;;;12.43;82.00;100730.47;5076251;28;45242;-77
2022/03/11 04:58:22;;;;;;;;;13.00;11.00;;;;;12.39;82.73;100724.28;5076230;28;45418;-77
2022/03/11 05:00:48;;;;;;;;;14.00;12.75;;;;;12.34;82.50;100724.13;5075899;27;45491;-77
2022/03/11 05:03:13;;;;;;;;;20.50;16.00;;;;;12.32;82.96;100724.88;5076516;27;45929;-77
2022/03/11 05:05:39;;;;;;;;;12.25;12.00;;;;;12.27;83.44;100727.28;5074962;28;45435;-77
2022/03/11 05:08:05;;;;;;;;;17.25;13.00;;;;;12.23;84.39;100728.91;5074478;28;45639;-78
2022/03/11 05:10:30;;;;;;;;;13.75;13.25;;;;;12.16;84.31;100734.69;5076778;27;45347;-77
2022/03/11 05:12:56;;;;;;;;;11.00;10.00;;;;;12.06;84.74;100725.69;5077552;27;45497;-77
2022/03/11 05:15:24;;;;;;;;;12.25;12.25;;;;;12.03;85.51;100727.28;5078878;27;45292;-77
2022/03/11 05:17:51;;;;;;;;;16.25;15.25;;;;;11.97;86.44;100716.66;5079941;27;45495;-77
2022/03/11 05:20:17;;;;;;;;;14.00;12.75;;;;;11.93;87.18;100713.06;5078824;27;46142;-77
2022/03/11 05:22:42;;;;;;;;;12.00;10.00;;;;;11.92;86.64;100713.88;5079085;27;45217;-77
2022/03/11 05:25:09;;;;;;;;;11.00;11.00;;;;;11.95;86.96;100716.56;5080674;27;45437;-76
2022/03/11 05:27:35;;;;;;;;;12.00;11.00;;;;;11.95;87.48;100710.50;5082434;27;45532;-76
2022/03/11 05:30:01;;;;;;;;;13.75;12.25;;;;;11.92;87.11;100708.69;5079289;27;46100;-77
2022/03/11 05:32:26;;;;;;;;;12.00;10.75;;;;;11.97;86.77;100707.16;5078558;27;45391;-78
2022/03/11 05:34:52;;;;;;;;;12.50;12.00;;;;;11.97;86.89;100698.50;5078627;27;45500;-77
2022/03/11 05:37:17;;;;;;;;;17.50;13.50;;;;;12.02;86.83;100692.69;5078912;28;45288;-77
2022/03/11 05:39:43;;;;;;;;;12.00;11.50;;;;;12.10;86.31;100690.34;5078680;27;45926;-77
2022/03/11 05:42:09;;;;;;;;;12.50;10.25;;;;;12.10;86.15;100685.16;5078399;27;45449;-77
2022/03/11 05:44:35;;;;;;;;;15.25;12.25;;;;;12.14;85.94;100691.34;5078277;27;45262;-77
2022/03/11 05:47:00;;;;;;;;;11.00;11.00;;;;;12.12;85.71;100693.88;5078040;27;45189;-77
2022/03/11 05:49:26;;;;;;;;;11.25;10.50;;;;;12.14;85.81;100693.97;5078354;27;45739;-77
2022/03/11 05:51:52;;;;;;;;;13.00;11.00;;;;;12.07;86.14;100685.94;5078002;27;45223;-77
2022/03/11 05:54:18;;;;;;;;;11.75;10.00;;;;;12.11;86.08;100693.84;5078468;27;45366;-77
2022/03/11 05:56:43;;;;;;;;;9.75;9.75;;;;;12.17;86.04;100691.44;5078510;27;45356;-77
2022/03/11 05:59:09;;;;;;;;;12.00;11.50;;;;;12.12;86.03;100682.63;5076848;28;46800;-77
2022/03/11 06:01:35;;;;;;;;;10.25;9.00;;;;;12.18;85.86;100690.63;5078323;28;45364;-77
2022/03/11 06:04:03;;;;;;;;;11.00;9.50;;;;;12.17;85.86;100692.34;5079455;27;45279;-77
2022/03/11 06:06:32;;;;;;;;;11.75;10.75;;;;;12.18;85.59;100691.53;5082172;27;45291;-77
2022/03/11 06:08:59;;;;;;;;;10.00;10.00;;;;;12.10;85.91;100681.69;5076381;28;47359;-77
2022/03/11 06:11:27;;;;;;;;;11.25;11.25;;;;;12.12;86.39;100688.69;5077252;27;45260;-77
2022/03/11 06:13:53;;;;;;;;;12.50;10.25;;;;;12.12;86.55;100696.47;5074374;28;45509;-77
2022/03/11 06:16:18;;;;;;;;;11.75;11.75;;;;;12.11;86.35;100688.66;5077570;27;45381;-78
2022/03/11 06:18:44;;;;;;;;;14.75;10.50;;;;;12.10;86.80;100690.34;5077277;27;45951;-77
2022/03/11 06:21:09;;;;;;;;;7.75;7.75;;;;;12.08;86.37;100694.63;5077312;27;45320;-77
2022/03/11 06:23:36;;;;;;;;;13.00;11.25;;;;;12.05;86.99;100690.16;5077174;27;45325;-77
2022/03/11 06:26:02;;;;;;;;;11.00;8.75;;;;;12.04;87.14;100677.16;5078020;27;45720;-76
2022/03/11 06:28:27;;;;;;;;;10.75;10.00;;;;;12.04;87.15;100682.34;5077287;27;45298;-77
2022/03/11 06:30:53;;;;;;;;;13.50;9.00;;;;;12.07;87.00;100675.56;5077492;27;45369;-77
2022/03/11 06:33:20;;;;;;;;;9.25;9.00;;;;;12.06;87.10;100684.16;5077584;28;45374;-76
2022/03/11 06:35:48;;;;;;;;;11.25;8.50;;;;;12.05;87.38;100682.38;5077590;27;45393;-76
2022/03/11 06:38:13;;;;;;;;;12.25;9.75;;;;;12.04;87.64;100684.94;5077714;27;45504;-78
2022/03/11 06:40:39;;;;;;;;;11.00;10.00;;;;;11.96;87.97;100657.81;5076500;28;45381;-77
2022/03/11 06:43:05;;;;;;;;;10.00;9.00;;;;;12.02;87.92;100676.22;5078373;27;45322;-76
2022/03/11 06:45:31;;;;;;;;;10.25;8.75;;;;;11.99;88.83;100677.00;5078958;27;45681;-77
2022/03/11 06:47:56;;;;;;;;;8.00;7.75;;;;;11.90;88.90;100663.66;5077736;27;45463;-76
2022/03/11 06:50:22;;;;;;;;;15.75;9.75;;;;;11.96;88.87;100673.38;5077522;27;45303;-77
2022/03/11 06:52:47;;;;;;;;;11.00;9.75;;;;;11.97;89.04;100667.34;5076637;27;45489;-74
2022/03/11 06:55:13;;;;;;;;;9.00;9.00;;;;;12.04;88.66;100674.56;5077262;27;45383;-74
2022/03/11 06:57:39;;;;;;;;;11.00;9.50;;;;;12.07;88.35;100672.09;5076622;27;45600;-77
2022/03/11 07:00:07;;;;;;;;;8.75;8.75;;;;;11.97;88.35;100662.16;5078323;27;45481;-84
2022/03/11 07:02:36;;;;;;;;;9.00;8.00;;;;;12.08;88.42;100666.94;5057675;28;45370;-83
2022/03/11 07:05:03;;;;;;;;;11.25;8.50;;;;;11.97;87.77;100634.50;5083698;27;45548;-84
2022/03/11 07:07:31;;;;;;;;;11.75;9.00;;;;;12.11;87.98;100655.78;5113650;27;46835;-81
2022/03/11 07:09:57;;;;;;;;;10.25;6.50;;;;;12.16;87.94;100664.63;5097562;27;45413;-81
2022/03/11 07:12:22;;;;;;;;;12.50;10.00;;;;;12.16;87.91;100668.91;5084782;27;45435;-82
2022/03/11 07:14:48;;;;;;;;;7.00;7.00;;;;;12.11;88.34;100665.28;5090183;27;45260;-81
2022/03/11 07:17:15;;;;;;;;;12.00;9.75;;;;;11.83;88.88;100626.22;5078835;27;45978;-76
2022/03/11 07:19:40;;;;;;;;;10.00;7.25;;;;;11.85;88.47;100628.84;5076845;27;45395;-77
2022/03/11 07:22:06;;;;;;;;;9.00;7.75;;;;;12.04;88.69;100657.25;5077405;27;45354;-77
2022/03/11 07:24:32;;;;;;;;;14.50;9.75;;;;;11.90;89.22;100624.72;5077240;28;45402;-77
2022/03/11 07:26:58;;;;;;;;;9.00;8.75;;;;;12.11;89.09;100653.19;5078663;27;45488;-78
2022/03/11 07:29:24;;;;;;;;;8.50;8.00;;;;;12.13;88.35;100650.66;5076005;27;45988;-80
2022/03/11 07:31:50;;;;;;;;;10.75;7.00;;;;;12.16;88.08;100661.13;5076326;27;45358;-77
2022/03/11 07:34:16;;;;;;;;;4.75;4.75;;;;;12.12;88.88;100654.09;5078901;27;45413;-78
2022/03/11 07:36:42;;;;;;;;;7.75;7.00;;;;;12.10;88.47;100651.41;5088699;27;45857;-76
2022/03/11 07:39:10;;;;;;;;;6.00;4.00;;;;;12.12;88.39;100646.28;5076121;27;45753;-75
2022/03/11 07:41:36;;;;;;;;;9.75;6.75;;;;;12.14;88.49;100647.25;5075706;27;45461;-75
2022/03/11 07:44:02;;;;;;;;;8.75;8.75;;;;;12.10;88.82;100625.47;5075093;27;45479;-74
2022/03/11 07:46:29;;;;;;;;;6.25;6.25;;;;;12.15;88.17;100638.63;5075541;27;45449;-75
2022/03/11 07:48:59;;;;;;;;;11.00;9.00;;;;;12.14;88.38;100640.31;5084147;27;45554;-76
2022/03/11 07:51:25;;;;;;;;;7.00;7.00;;;;;12.15;88.02;100631.72;5076148;27;45531;-74
2022/03/11 07:53:51;;;;;;;;;8.00;7.25;;;;;12.21;88.41;100618.94;5075243;27;45670;-74
2022/03/11 07:56:17;;;;;;;;;9.00;8.00;;;;;12.35;88.02;100632.41;5078533;27;46098;-75
2022/03/11 07:58:43;;;;;;;;;8.00;7.25;;;;;12.43;87.34;100624.00;5073578;28;45870;-75
2022/03/11 08:01:10;;;;;;;;;9.00;8.00;;;;;12.51;86.54;100619.94;5075846;27;45395;-76
2022/03/11 08:03:39;;;;;;;;;11.00;7.50;;;;;12.57;85.98;100630.56;5077123;27;45464;-78
2022/03/11 08:06:11;;;;;;;;;8.25;7.00;;;;;12.61;85.46;100623.75;5080867;28;46616;-80
2022/03/11 08:08:38;;;;;;;;;9.75;8.75;;;;;12.63;85.43;100616.91;5069728;27;45604;-78
2022/03/11 08:11:04;;;;;;;;;9.00;9.00;;;;;12.71;84.95;100612.81;5074541;27;45283;-79
2022/03/11 08:13:30;;;;;;;;;8.25;6.00;;;;;12.80;84.21;100617.41;5075872;27;45212;-77
2022/03/11 08:15:56;;;;;;;;;8.50;6.50;;;;;12.85;83.70;100615.88;5074734;27;45460;-78
2022/03/11 08:18:22;;;;;;;;;9.25;7.00;;;;;12.91;83.63;100603.06;5085637;27;45474;-77
2022/03/11 08:20:48;;;;;;;;;7.50;7.50;;;;;13.01;82.16;100609.44;5095995;27;45237;-76
2022/03/11 08:23:14;;;;;;;;;9.25;8.00;;;;;13.03;82.42;100607.78;5079193;27;45588;-76
2022/03/11 08:25:39;;;;;;;;;8.25;8.25;;;;;13.09;81.79;100609.69;5073791;27;47475;-76
2022/03/11 08:28:10;;;;;;;;;8.75;7.50;;;;;13.15;81.42;100602.06;5079388;27;45453;-76
2022/03/11 08:30:39;;;;;;;;;7.75;7.75;;;;;13.13;81.17;100611.53;5084239;27;45539;-75
2022/03/11 08:33:05;;;;;;;;;5.75;5.75;;;;;13.08;81.17;100600.13;5075892;27;45401;-75
2022/03/11 08:35:31;;;;;;;;;11.00;7.50;;;;;13.01;81.46;100588.66;5080308;27;45454;-75
2022/03/11 08:37:57;;;;;;;;;7.75;7.00;;;;;13.02;81.57;100577.44;5075328;27;45912;-75
2022/03/11 08:40:24;;;;;;;;;6.75;5.25;;;;;13.08;81.28;100572.41;5075895;27;45440;-75
2022/03/11 08:42:53;;;;;;;;;7.50;6.00;;;;;13.13;80.89;100580.34;5073701;27;45520;-75
2022/03/11 08:45:21;;;;;;;;;6.00;6.00;;;;;13.15;80.50;100574.38;5067450;27;46539;-75
2022/03/11 08:47:48;;;;;;;;;9.00;6.00;;;;;13.05;80.48;100559.34;5075168;28;45476;-76
2022/03/11 08:50:14;;;;;;;;;8.75;5.75;;;;;13.12;81.23;100578.59;5077843;28;45236;-74
2022/03/11 08:52:40;;;;;;;;;7.25;7.25;;;;;13.13;81.10;100570.84;5079450;28;45371;-74
2022/03/11 08:55:07;;;;;;;;;8.25;6.00;;;;;13.25;80.73;100572.03;5079302;28;46352;-77
2022/03/11 08:57:35;;;;;;;;;9.00;7.00;;;;;13.36;80.50;100575.84;5079806;27;45265;-77
2022/03/11 09:00:03;;;;;;;;;7.75;6.75;;;;;13.42;79.30;100573.44;5075415;27;45333;-76
2022/03/11 09:02:29;;;;;;;;;7.75;5.50;;;;;13.48;78.73;100575.34;5058708;28;45205;-75
2022/03/11 09:04:55;;;;;;;;;7.25;7.00;;;;;13.52;78.50;100578.91;5075168;27;46752;-74
2022/03/11 09:07:23;;;;;;;;;5.00;5.00;;;;;13.50;78.58;100565.00;5076822;27;45374;-75
2022/03/11 09:09:49;;;;;;;;;6.50;6.50;;;;;13.50;78.58;100552.00;5079095;28;45498;-76
2022/03/11 09:12:15;;;;;;;;;8.50;6.50;;;;;13.49;78.30;100542.44;5079400;28;45395;-76
2022/03/11 09:14:40;;;;;;;;;7.00;5.50;;;;;13.50;77.55;100539.00;5079353;27;45971;-75
2022/03/11 09:17:07;;;;;;;;;7.00;5.50;;;;;13.55;77.82;100533.06;5078412;27;45401;-76
2022/03/11 09:19:33;;;;;;;;;8.25;6.75;;;;;13.56;77.27;100546.97;5088906;27;45271;-76
2022/03/11 09:21:59;;;;;;;;;5.75;5.00;;;;;13.61;76.81;100554.06;5080118;27;45366;-77
2022/03/11 09:24:25;;;;;;;;;6.75;5.75;;;;;13.60;77.37;100557.50;5079119;27;45392;-76
2022/03/11 09:26:54;;;;;;;;;6.50;5.50;;;;;13.53;76.93;100547.75;5078503;27;45356;-76
2022/03/11 09:29:20;;;;;;;;;6.00;6.00;;;;;13.59;77.00;100550.53;5079625;27;45489;-77
2022/03/11 09:31:45;;;;;;;;;6.00;6.00;;;;;13.64;77.29;100558.47;5076976;28;45512;-76
2022/03/11 09:34:11;;;;;;;;;5.50;4.00;;;;;13.69;77.04;100542.97;5078210;27;45436;-75
2022/03/11 09:36:37;;;;;;;;;6.25;5.00;;;;;13.78;76.98;100540.63;5079247;27;45432;-77
2022/03/11 09:39:03;;;;;;;;;4.50;4.00;;;;;13.81;75.92;100538.13;5078271;28;45417;-76
2022/03/11 09:41:29;;;;;;;;;3.50;3.25;;;;;13.86;75.30;100530.44;5078779;27;45344;-77
2022/03/11 09:43:56;;;;;;;;;3.25;3.25;;;;;14.00;74.43;100530.78;5078892;27;46267;-76
2022/03/11 09:46:22;;;;;;;;;3.25;3.25;;;;;14.02;74.42;100527.41;5057807;28;45364;-76
2022/03/11 09:48:48;;;;;;;;;5.25;4.25;;;;;14.04;74.19;100524.81;5073868;27;45641;-77
2022/03/11 09:51:16;;;;;;;;;3.00;3.00;;;;;14.02;74.10;100529.13;5083542;27;45450;-77
2022/03/11 09:53:42;;;;;;;;;5.75;4.00;;;;;14.07;74.09;100520.59;5088838;27;46471;-76
2022/03/11 09:56:08;;;;;;;;;3.75;2.75;;;;;14.15;73.62;100522.50;5078340;28;45359;-79
2022/03/11 09:58:35;;;;;;;;;3.00;3.00;;;;;14.17;73.19;100505.19;5078196;27;45243;-78
2022/03/11 10:01:00;;;;;;;;;5.00;2.25;;;;;14.06;73.00;100511.00;5078180;28;45244;-77
2022/03/11 10:03:29;;;;;;;;;4.00;4.00;;;;;14.03;73.14;100510.94;5078488;27;45485;-76
2022/03/11 10:05:55;;;;;;;;;3.00;3.00;;;;;13.90;73.33;100507.13;5077695;27;45878;-77
2022/03/11 10:08:36;;;;;;;;;2.25;2.00;;;;;13.91;74.56;100498.47;5078049;27;45360;-78
2022/03/11 10:11:27;;;;;;;;;2.75;1.75;;;;;13.96;76.04;100495.13;5078929;27;45986;-77
2022/03/11 10:14:06;;;;;;;;;3.00;3.00;;;;;13.88;75.51;100458.50;5077261;27;46098;-75
2022/03/11 10:16:32;;;;;;;;;4.00;4.00;;;;;14.02;78.47;100484.84;5075882;27;45908;-75
2022/03/11 10:19:07;;;;;;;;;3.75;2.50;;;;;14.00;80.29;100470.91;5088014;27;45379;-82
2022/03/11 10:21:45;;;;;;;;;4.00;2.25;;;;;14.18;80.45;100517.38;5086386;27;45528;-76
2022/03/11 10:24:16;;;;;;;;;4.75;4.00;;;;;14.16;81.97;100519.94;5076900;27;45577;-75
2022/03/11 10:26:53;;;;;;;;;3.50;3.50;;;;;14.18;80.28;100509.56;5078148;27;45226;-76
2022/03/11 10:29:24;;;;;;;;;2.00;2.00;;;;;14.17;80.07;100507.78;5077684;27;45595;-75
2022/03/11 10:31:52;;;;;;;;;4.00;3.00;;;;;14.25;79.50;100506.28;5077537;27;45555;-73
2022/03/11 10:34:25;;;;;;;;;4.75;3.00;;;;;14.28;78.92;100488.09;5077718;28;45303;-76
2022/03/11 10:36:57;;;;;;;;;5.00;4.00;;;;;14.34;78.47;100497.78;5076951;27;45764;-75
2022/03/11 10:39:30;;;;;;;;;4.00;4.00;;;;;14.37;79.10;100493.53;5077868;28;45361;-74
2022/03/11 10:42:17;;;;;;;;;5.25;5.00;;;;;14.32;76.98;100510.78;5077764;27;45452;-78
2022/03/11 10:45:00;;;;;;;;;5.00;4.00;;;;;14.22;77.49;100522.69;5085356;27;45775;-75
2022/03/11 10:47:28;;;;;;;;;5.00;2.25;;;;;14.19;78.00;100517.44;5091798;27;45884;-76
2022/03/11 10:49:57;;;;;;;;;4.00;4.00;;;;;14.19;78.24;100524.34;5086077;27;45472;-74
2022/03/11 10:52:50;;;;;;;;;2.00;2.00;;;;;14.20;78.92;100521.75;5094028;27;45381;-74
2022/03/11 10:55:31;;;;;;;;;5.00;4.00;;;;;14.20;81.85;100505.28;5080125;27;45382;-75
2022/03/11 10:58:02;;;;;;;;;4.00;3.00;;;;;14.09;84.93;100487.66;5073776;28;45888;-75
2022/03/11 11:00:32;;;;;;;;;4.75;4.00;;;;;14.15;87.20;100538.09;5076470;27;45338;-81
2022/03/11 11:02:59;;;;;;;;;3.00;3.00;;;;;14.14;87.12;100549.41;5081013;27;45329;-73
2022/03/11 11:05:26;;;;;;;;;5.00;3.00;;;;;14.08;89.53;100535.34;5080089;27;46156;-79
2022/03/11 11:07:53;;;;;;;;;4.00;4.00;;;;;14.13;91.06;100524.19;5077161;27;45884;-75
2022/03/11 11:10:23;;;;;;;;;5.00;5.00;;;;;14.15;91.84;100530.28;5090644;27;45568;-74
2022/03/11 11:12:50;;;;;;;;;5.50;4.00;;;;;14.17;93.70;100528.63;5076764;27;45802;-74